createdAt,value
2022-08-20T00:02:10.028Z,8.18
2022-08-20T00:04:37.096Z,9.30
2022-08-20T00:07:06.765Z,9.25
2022-08-20T00:09:36.424Z,8.85
2022-08-20T00:12:04.856Z,10.05
2022-08-20T00:14:31.702Z,9.63
2022-08-20T00:17:04.194Z,9.60
2022-08-20T00:19:31.084Z,8.20
2022-08-20T00:21:58.640Z,8.32
2022-08-20T00:24:26.259Z,8.43
2022-08-20T00:26:53.118Z,7.82
2022-08-20T00:29:20.501Z,7.50
2022-08-20T00:31:49.978Z,7.28
2022-08-20T00:34:16.874Z,7.97
2022-08-20T00:36:43.562Z,7.78
2022-08-20T00:39:10.470Z,7.03
2022-08-20T00:41:37.143Z,7.40
2022-08-20T00:44:11.477Z,7.78
2022-08-20T00:46:40.269Z,8.45
2022-08-20T00:49:09.697Z,9.35
2022-08-20T00:51:46.422Z,8.13
2022-08-20T00:54:20.619Z,8.30
2022-08-20T00:56:55.912Z,8.18
2022-08-20T00:59:27.265Z,8.77
2022-08-20T01:01:55.625Z,8.63
2022-08-20T01:04:28.381Z,9.52
2022-08-20T01:06:55.167Z,8.70
2022-08-20T01:09:49.690Z,9.32
2022-08-20T01:12:10.359Z,9.45
2022-08-20T01:14:43.959Z,9.77
2022-08-20T01:17:16.189Z,9.77
2022-08-20T01:19:48.006Z,9.20
2022-08-20T01:22:39.969Z,9.25
2022-08-20T01:25:18.628Z,8.82
2022-08-20T01:27:46.805Z,9.20
2022-08-20T01:30:19.901Z,8.48
2022-08-20T01:32:46.721Z,8.05
2022-08-20T01:35:20.441Z,9.02
2022-08-20T01:37:47.134Z,8.35
2022-08-20T01:40:22.115Z,8.85
2022-08-20T01:42:58.522Z,8.57
2022-08-20T01:45:28.266Z,8.65
2022-08-20T01:47:58.244Z,8.55
2022-08-20T01:50:28.651Z,9.35
2022-08-20T01:53:00.591Z,9.27
2022-08-20T01:55:27.807Z,10.35
2022-08-20T01:57:54.758Z,9.55
2022-08-20T02:00:22.739Z,9.32
2022-08-20T02:02:50.413Z,9.52
2022-08-20T02:05:18.817Z,9.02
2022-08-20T02:07:45.571Z,8.13
2022-08-20T02:10:15.427Z,8.38
2022-08-20T02:12:42.110Z,8.48
2022-08-20T02:15:11.077Z,8.27
2022-08-20T02:17:39.194Z,8.35
2022-08-20T02:20:16.662Z,8.52
2022-08-20T02:22:55.769Z,7.68
2022-08-20T02:25:25.609Z,7.70
2022-08-20T02:27:54.871Z,7.32
2022-08-20T02:30:29.921Z,7.97
2022-08-20T02:32:57.835Z,7.53
2022-08-20T02:35:25.449Z,6.65
2022-08-20T02:37:53.424Z,6.30
2022-08-20T02:40:31.003Z,6.65
2022-08-20T02:42:59.496Z,5.43
2022-08-20T02:45:26.816Z,6.05
2022-08-20T02:47:54.235Z,6.03
2022-08-20T02:50:22.232Z,5.57
2022-08-20T02:52:51.681Z,5.82
2022-08-20T02:55:27.125Z,5.88
2022-08-20T02:58:00.266Z,7.07
2022-08-20T03:00:32.248Z,6.25
2022-08-20T03:03:05.838Z,7.03
2022-08-20T03:05:32.613Z,7.07
2022-08-20T03:07:59.824Z,6.40
2022-08-20T03:10:33.639Z,6.55
2022-08-20T03:13:02.517Z,6.43
2022-08-20T03:15:33.985Z,6.57
2022-08-20T03:20:28.595Z,5.47
2022-08-20T03:22:55.962Z,5.65
2022-08-20T03:25:23.344Z,5.68
2022-08-20T03:27:54.551Z,5.43
2022-08-20T03:32:48.921Z,5.47
2022-08-20T03:35:17.328Z,5.57
2022-08-20T03:37:48.291Z,5.93
2022-08-20T03:40:19.750Z,5.78
2022-08-20T03:42:46.455Z,6.53
2022-08-20T03:45:18.372Z,5.85
2022-08-20T03:47:47.299Z,5.70
2022-08-20T03:50:14.757Z,6.07
2022-08-20T03:52:53.630Z,6.65
2022-08-20T03:55:21.730Z,5.50
2022-08-20T03:57:52.435Z,5.60
2022-08-20T04:00:27.158Z,6.00
2022-08-20T04:02:56.512Z,5.53
2022-08-20T04:05:25.008Z,5.80
2022-08-20T04:07:55.672Z,5.90
2022-08-20T04:10:25.425Z,5.57
2022-08-20T04:12:53.007Z,5.75
2022-08-20T04:15:21.207Z,6.00
2022-08-20T04:17:53.502Z,6.28
2022-08-20T04:20:24.091Z,5.78
2022-08-20T04:22:58.591Z,6.43
2022-08-20T04:25:25.806Z,5.47
2022-08-20T04:27:53.702Z,5.50
2022-08-20T04:30:23.814Z,5.47
2022-08-20T04:32:50.563Z,5.38
2022-08-20T04:35:18.629Z,5.18
2022-08-20T04:37:47.196Z,5.47
2022-08-20T04:40:36.041Z,5.70
2022-08-20T04:43:04.998Z,5.15
2022-08-20T04:45:33.193Z,5.47
2022-08-20T04:48:05.554Z,5.32
2022-08-20T04:50:36.855Z,5.15
2022-08-20T04:53:09.357Z,5.32
2022-08-20T04:55:42.345Z,6.32
2022-08-20T04:58:16.594Z,5.40
2022-08-20T05:00:46.560Z,5.22
2022-08-20T05:03:13.324Z,4.85
2022-08-20T05:05:40.044Z,4.57
2022-08-20T05:08:06.952Z,4.38
2022-08-20T05:10:47.333Z,5.53
2022-08-20T05:13:14.097Z,5.50
2022-08-20T05:15:41.003Z,4.88
2022-08-20T05:18:09.010Z,5.40
2022-08-20T05:20:40.837Z,5.45
2022-08-20T05:23:14.194Z,5.13
2022-08-20T05:25:42.607Z,4.97
2022-08-20T05:28:18.221Z,5.35
2022-08-20T05:30:47.596Z,5.22
2022-08-20T05:33:17.786Z,4.95
2022-08-20T05:35:44.950Z,5.28
2022-08-20T05:38:13.575Z,4.20
2022-08-20T05:40:41.669Z,4.93
2022-08-20T05:43:08.957Z,4.85
2022-08-20T05:45:37.644Z,4.70
2022-08-20T05:48:16.037Z,4.38
2022-08-20T05:50:45.980Z,4.68
2022-08-20T05:53:12.928Z,4.10
2022-08-20T05:55:40.209Z,4.38
2022-08-20T05:58:13.889Z,4.28
2022-08-20T06:00:40.582Z,3.83
2022-08-20T06:03:26.013Z,3.58
2022-08-20T06:05:52.686Z,4.40
2022-08-20T06:08:19.360Z,3.28
2022-08-20T06:10:46.254Z,3.83
2022-08-20T06:13:13.938Z,3.42
2022-08-20T06:15:41.380Z,3.63
2022-08-20T06:18:16.608Z,3.08
2022-08-20T06:20:55.096Z,3.40
2022-08-20T06:23:23.187Z,3.33
2022-08-20T06:25:50.388Z,3.05
2022-08-20T06:28:18.673Z,2.83
2022-08-20T06:30:45.356Z,2.95
2022-08-20T06:33:12.319Z,3.05
2022-08-20T06:35:39.019Z,3.38
2022-08-20T06:38:05.905Z,3.38
2022-08-20T06:40:34.237Z,2.72
2022-08-20T06:43:01.565Z,3.78
2022-08-20T06:45:31.415Z,2.65
2022-08-20T06:48:01.395Z,3.35
2022-08-20T06:50:43.140Z,2.80
2022-08-20T06:53:17.216Z,3.22
2022-08-20T06:55:48.767Z,2.85
2022-08-20T06:58:36.361Z,2.65
2022-08-20T07:01:09.105Z,2.70
2022-08-20T07:03:38.234Z,2.90
2022-08-20T07:06:05.727Z,2.40
2022-08-20T07:08:33.233Z,2.78
2022-08-20T07:10:59.996Z,2.25
2022-08-20T07:13:27.473Z,2.60
2022-08-20T07:15:55.073Z,2.22
2022-08-20T07:18:28.246Z,2.45
2022-08-20T07:20:57.092Z,2.72
2022-08-20T07:23:25.242Z,2.33
2022-08-20T07:25:52.446Z,2.00
2022-08-20T07:28:21.732Z,2.22
2022-08-20T07:31:13.503Z,2.72
2022-08-20T07:33:41.856Z,2.38
2022-08-20T07:36:09.139Z,2.30
2022-08-20T07:38:36.684Z,2.25
2022-08-20T07:41:13.255Z,1.90
2022-08-20T07:43:41.202Z,2.67
2022-08-20T07:46:09.324Z,2.53
2022-08-20T07:48:39.922Z,2.00
2022-08-20T07:51:10.667Z,2.63
2022-08-20T07:53:39.234Z,2.22
2022-08-20T07:56:09.089Z,2.28
2022-08-20T07:58:38.697Z,2.20
2022-08-20T08:01:10.298Z,2.03
2022-08-20T08:03:49.150Z,1.80
2022-08-20T08:06:29.047Z,2.00
2022-08-20T08:09:07.991Z,2.45
2022-08-20T08:11:37.822Z,2.05
2022-08-20T08:14:06.873Z,2.42
2022-08-20T08:16:34.428Z,2.20
2022-08-20T08:19:02.000Z,1.83
2022-08-20T08:21:29.994Z,2.38
2022-08-20T08:23:56.922Z,2.60
2022-08-20T08:26:23.869Z,1.85
2022-08-20T08:28:51.293Z,2.03
2022-08-20T08:31:18.322Z,1.77
2022-08-20T08:33:45.039Z,2.53
2022-08-20T08:36:13.671Z,2.10
2022-08-20T08:38:42.924Z,1.98
2022-08-20T08:41:31.785Z,1.67
2022-08-20T08:44:21.687Z,2.00
2022-08-20T08:46:49.614Z,1.80
2022-08-20T08:49:24.525Z,2.10
2022-08-20T08:52:07.087Z,2.20
2022-08-20T08:54:35.248Z,2.08
2022-08-20T08:57:02.602Z,2.45
2022-08-20T08:59:56.197Z,1.70
2022-08-20T09:02:21.546Z,1.63
2022-08-20T09:04:51.404Z,1.63
2022-08-20T09:07:18.376Z,1.35
2022-08-20T09:09:46.937Z,2.22
2022-08-20T09:12:18.956Z,1.42
2022-08-20T09:14:47.973Z,1.50
2022-08-20T09:17:16.179Z,1.83
2022-08-20T09:19:42.878Z,1.80
2022-08-20T09:22:11.080Z,2.03
2022-08-20T09:24:38.244Z,1.58
2022-08-20T09:27:05.620Z,1.60
2022-08-20T09:29:32.962Z,1.52
2022-08-20T09:32:12.739Z,1.90
2022-08-20T09:34:46.372Z,1.60
2022-08-20T09:37:14.203Z,1.70
2022-08-20T09:39:41.247Z,1.83
2022-08-20T09:42:13.484Z,1.90
2022-08-20T09:44:40.790Z,1.60
2022-08-20T09:47:07.720Z,1.95
2022-08-20T09:49:34.450Z,1.58
2022-08-20T09:52:02.922Z,2.15
2022-08-20T09:54:31.017Z,1.98
2022-08-20T09:56:58.895Z,1.55
2022-08-20T09:59:26.508Z,1.60
2022-08-20T10:01:53.215Z,2.10
2022-08-20T10:04:19.968Z,1.73
2022-08-20T10:06:46.764Z,1.95
2022-08-20T10:09:13.870Z,1.88
2022-08-20T10:11:40.955Z,1.85
2022-08-20T10:14:09.151Z,2.13
2022-08-20T10:16:36.510Z,2.38
2022-08-20T10:19:04.534Z,2.33
2022-08-20T10:21:35.408Z,2.00
2022-08-20T10:24:05.303Z,1.60
2022-08-20T10:26:31.965Z,1.88
2022-08-20T10:28:58.612Z,2.20
2022-08-20T10:31:25.300Z,1.98
2022-08-20T10:33:51.947Z,1.75
2022-08-20T10:36:18.801Z,1.52
2022-08-20T10:38:46.021Z,1.60
2022-08-20T10:41:12.782Z,1.83
2022-08-20T10:43:39.470Z,2.30
2022-08-20T10:46:06.895Z,2.33
2022-08-20T10:48:33.712Z,2.63
2022-08-20T10:51:00.645Z,2.00
2022-08-20T10:53:27.529Z,1.90
2022-08-20T10:55:55.590Z,1.98
2022-08-20T10:58:23.795Z,1.95
2022-08-20T11:00:51.391Z,1.95
2022-08-20T11:03:18.231Z,1.67
2022-08-20T11:05:45.117Z,1.88
2022-08-20T11:08:11.949Z,1.80
2022-08-20T11:10:39.105Z,1.60
2022-08-20T11:13:07.937Z,2.17
2022-08-20T11:15:38.042Z,1.60
2022-08-20T11:18:05.865Z,2.85
2022-08-20T11:20:33.012Z,2.15
2022-08-20T11:22:59.768Z,2.15
2022-08-20T11:25:27.229Z,1.70
2022-08-20T11:27:55.566Z,1.98
2022-08-20T11:30:31.314Z,2.30
2022-08-20T11:32:59.454Z,2.40
2022-08-20T11:35:48.107Z,2.33
2022-08-20T11:38:14.304Z,1.73
2022-08-20T11:40:41.001Z,2.47
2022-08-20T11:43:16.247Z,2.13
2022-08-20T11:45:46.217Z,2.58
2022-08-20T11:48:12.990Z,2.28
2022-08-20T11:50:39.680Z,1.73
2022-08-20T11:53:07.562Z,2.58
2022-08-20T11:55:34.765Z,2.00
2022-08-20T11:58:02.012Z,2.20
2022-08-20T12:00:33.248Z,2.33
2022-08-20T12:03:02.037Z,1.50
2022-08-20T12:05:29.998Z,2.08
2022-08-20T12:07:59.930Z,2.47
2022-08-20T12:10:28.057Z,1.98
2022-08-20T12:12:55.971Z,2.53
2022-08-20T12:15:24.314Z,2.05
2022-08-20T12:17:50.999Z,2.45
2022-08-20T12:20:17.845Z,2.00
2022-08-20T12:22:44.646Z,2.20
2022-08-20T12:25:13.187Z,2.78
2022-08-20T12:27:40.556Z,2.42
2022-08-20T12:30:18.058Z,2.72
2022-08-20T12:32:44.824Z,2.20
2022-08-20T12:35:13.891Z,2.50
2022-08-20T12:37:41.532Z,2.40
2022-08-20T12:40:12.726Z,2.58
2022-08-20T12:45:06.869Z,2.28
2022-08-20T12:47:37.991Z,2.20
2022-08-20T12:52:36.145Z,2.65
2022-08-20T12:55:05.465Z,2.47
2022-08-20T12:57:37.517Z,2.17
2022-08-20T13:00:19.209Z,2.30
2022-08-20T13:02:46.200Z,2.35
2022-08-20T13:05:14.270Z,2.00
2022-08-20T13:07:42.256Z,2.55
2022-08-20T13:10:11.590Z,2.70
2022-08-20T13:12:38.346Z,2.53
2022-08-20T13:15:05.682Z,2.25
2022-08-20T13:17:38.967Z,2.42
2022-08-20T13:20:09.484Z,2.92
2022-08-20T13:22:36.736Z,3.05
2022-08-20T13:25:04.573Z,2.22
2022-08-20T13:27:31.253Z,2.35
2022-08-20T13:29:59.023Z,2.75
2022-08-20T13:32:26.565Z,2.10
2022-08-20T13:34:53.523Z,2.83
2022-08-20T13:37:25.983Z,2.25
2022-08-20T13:39:54.548Z,2.47
2022-08-20T13:42:21.909Z,2.40
2022-08-20T13:44:49.000Z,1.83
2022-08-20T13:47:25.718Z,1.98
2022-08-20T13:50:17.821Z,2.05
2022-08-20T13:52:44.772Z,1.98
2022-08-20T13:55:16.066Z,2.47
2022-08-20T13:57:44.445Z,2.75
2022-08-20T14:00:19.473Z,2.15
2022-08-20T14:02:46.552Z,2.42
2022-08-20T14:05:19.093Z,1.67
2022-08-20T14:07:47.249Z,2.17
2022-08-20T14:10:25.324Z,2.53
2022-08-20T14:12:53.027Z,2.05
2022-08-20T14:15:20.192Z,2.42
2022-08-20T14:17:53.211Z,2.65
2022-08-20T14:20:23.132Z,2.10
2022-08-20T14:22:49.887Z,2.22
2022-08-20T14:25:18.422Z,2.15
2022-08-20T14:27:45.699Z,3.10
2022-08-20T14:30:16.378Z,2.20
2022-08-20T14:32:43.289Z,2.42
2022-08-20T14:35:10.968Z,2.30
2022-08-20T14:37:40.724Z,2.33
2022-08-20T14:40:11.314Z,2.00
2022-08-20T14:42:39.038Z,2.90
2022-08-20T14:45:07.933Z,2.30
2022-08-20T14:47:40.809Z,2.58
2022-08-20T14:50:12.268Z,2.80
2022-08-20T14:52:39.976Z,2.28
2022-08-20T14:55:13.477Z,2.50
2022-08-20T14:57:40.729Z,2.30
2022-08-20T15:00:10.241Z,1.98
2022-08-20T15:02:37.593Z,1.92
2022-08-20T15:05:07.184Z,2.05
2022-08-20T15:07:38.096Z,2.15
2022-08-20T15:10:08.193Z,1.90
2022-08-20T15:12:35.283Z,1.75
2022-08-20T15:15:13.389Z,2.45
2022-08-20T15:17:50.126Z,1.40
2022-08-20T15:20:20.104Z,2.10
2022-08-20T15:22:48.430Z,2.00
2022-08-20T15:25:17.484Z,2.25
2022-08-20T15:27:45.004Z,2.33
2022-08-20T15:30:15.521Z,2.00
2022-08-20T15:32:42.301Z,2.13
2022-08-20T15:35:11.180Z,2.08
2022-08-20T15:37:43.484Z,2.38
2022-08-20T15:40:13.010Z,2.30
2022-08-20T15:42:43.388Z,2.13
2022-08-20T15:45:21.553Z,1.90
2022-08-20T15:48:15.080Z,1.88
2022-08-20T15:51:04.533Z,2.20
2022-08-20T15:53:39.309Z,2.33
2022-08-20T15:56:25.061Z,1.90
2022-08-20T15:59:18.357Z,2.92
2022-08-20T16:02:10.907Z,2.10
2022-08-20T16:04:43.141Z,2.13
2022-08-20T16:07:29.165Z,1.55
2022-08-20T16:10:22.521Z,1.95
2022-08-20T16:12:52.772Z,2.08
2022-08-20T16:15:32.286Z,1.92
2022-08-20T16:18:10.121Z,1.70
2022-08-20T16:20:47.913Z,1.80
2022-08-20T16:23:21.308Z,2.10
2022-08-20T16:26:12.084Z,2.22
2022-08-20T16:28:49.248Z,2.47
2022-08-20T16:31:21.516Z,2.35
2022-08-20T16:34:32.953Z,2.08
2022-08-20T16:37:25.225Z,1.60
2022-08-20T16:39:54.973Z,1.80
2022-08-20T16:42:25.748Z,1.77
2022-08-20T16:44:55.361Z,2.10
2022-08-20T16:47:30.562Z,2.30
2022-08-20T16:50:08.647Z,2.00
2022-08-20T16:52:35.366Z,1.98
2022-08-20T16:55:02.187Z,2.13
2022-08-20T16:57:29.490Z,1.52
2022-08-20T17:00:05.521Z,1.92
2022-08-20T17:02:32.193Z,2.20
2022-08-20T17:05:04.690Z,2.10
2022-08-20T17:07:51.239Z,2.17
2022-08-20T17:10:26.675Z,2.10
2022-08-20T17:12:57.039Z,1.80
2022-08-20T17:21:38.030Z,1.90
2022-08-20T17:26:48.198Z,1.48
2022-08-20T17:30:38.466Z,1.98
2022-08-20T17:33:07.807Z,1.83
2022-08-20T17:35:42.355Z,1.65
2022-08-20T17:38:28.202Z,2.50
2022-08-20T17:41:07.001Z,2.03
2022-08-20T17:43:34.627Z,2.05
2022-08-20T17:46:13.794Z,1.65
2022-08-20T17:48:48.520Z,1.70
2022-08-20T17:51:22.453Z,1.83
2022-08-20T17:54:00.220Z,2.30
2022-08-20T17:56:32.296Z,2.33
2022-08-20T17:59:59.472Z,1.75
2022-08-20T18:02:05.158Z,1.70
2022-08-20T18:04:32.190Z,1.63
2022-08-20T18:07:11.088Z,1.52
2022-08-20T18:09:54.604Z,1.90
2022-08-20T18:12:43.958Z,2.40
2022-08-20T18:15:25.010Z,1.98
2022-08-20T18:17:57.419Z,1.58
2022-08-20T18:20:37.768Z,2.00
2022-08-20T18:23:19.238Z,2.15
2022-08-20T18:25:57.322Z,1.80
2022-08-20T18:28:38.584Z,1.80
2022-08-20T18:33:39.029Z,2.03
2022-08-20T18:36:10.331Z,2.22
2022-08-20T18:38:41.846Z,1.67
2022-08-20T18:44:04.209Z,1.90
2022-08-20T18:46:31.173Z,1.67
2022-08-20T18:49:05.653Z,2.08
2022-08-20T18:51:42.319Z,1.83
2022-08-20T18:54:21.182Z,1.80
2022-08-20T18:56:47.876Z,1.98
2022-08-20T18:59:20.490Z,1.80
2022-08-20T19:01:48.987Z,1.85
2022-08-20T19:04:35.114Z,1.60
2022-08-20T19:07:05.065Z,2.00
2022-08-20T19:09:47.763Z,2.10
2022-08-20T19:12:14.397Z,2.22
2022-08-20T19:15:03.373Z,1.88
2022-08-20T19:17:52.763Z,2.13
2022-08-20T19:20:23.041Z,2.40
2022-08-20T19:22:52.462Z,2.60
2022-08-20T19:25:30.604Z,1.90
2022-08-20T19:28:00.472Z,2.15
2022-08-20T19:30:34.839Z,2.00
2022-08-20T19:33:02.231Z,2.00
2022-08-20T19:35:29.302Z,1.88
2022-08-20T19:37:56.216Z,2.05
2022-08-20T19:40:30.769Z,1.55
2022-08-20T19:43:00.624Z,1.98
2022-08-20T19:45:39.903Z,2.10
2022-08-20T19:48:27.810Z,1.92
2022-08-20T19:51:05.197Z,2.78
2022-08-20T19:53:34.461Z,2.40
2022-08-20T19:56:05.668Z,2.30
2022-08-20T19:58:33.700Z,2.58
2022-08-20T20:01:02.400Z,2.53
2022-08-20T20:03:32.698Z,2.80
2022-08-20T20:06:30.336Z,2.15
2022-08-20T20:09:07.084Z,1.95
2022-08-20T20:11:58.809Z,2.08
2022-08-20T20:17:00.621Z,2.08
2022-08-20T20:19:28.261Z,2.10
2022-08-20T20:22:19.015Z,2.70
2022-08-20T20:24:57.641Z,4.50
2022-08-20T20:27:27.170Z,3.30
2022-08-20T20:30:27.788Z,2.92
2022-08-20T20:32:57.209Z,2.38
2022-08-20T20:35:31.408Z,2.08
2022-08-20T20:38:07.845Z,2.38
2022-08-20T20:40:46.300Z,2.58
2022-08-20T20:43:42.514Z,2.10
2022-08-20T20:46:22.642Z,2.45
2022-08-20T20:48:50.687Z,2.53
2022-08-20T20:51:28.039Z,2.25
2022-08-20T20:53:59.658Z,2.50
2022-08-20T20:56:39.688Z,3.00
2022-08-20T20:59:08.206Z,3.30
2022-08-20T21:01:46.225Z,2.75
2022-08-20T21:04:22.085Z,2.78
2022-08-20T21:06:50.348Z,2.88
2022-08-20T21:09:18.602Z,2.75
2022-08-20T21:11:45.301Z,2.55
2022-08-20T21:14:12.141Z,2.70
2022-08-20T21:16:39.204Z,3.05
2022-08-20T21:19:07.195Z,2.85
2022-08-20T21:21:34.571Z,3.08
2022-08-20T21:24:01.270Z,3.22
2022-08-20T21:26:28.378Z,3.05
2022-08-20T21:28:55.417Z,3.53
2022-08-20T21:31:30.225Z,3.53
2022-08-20T21:33:56.908Z,3.22
2022-08-20T21:36:23.573Z,3.20
2022-08-20T21:38:51.340Z,3.47
2022-08-20T21:41:18.196Z,3.70
2022-08-20T21:43:44.856Z,3.83
2022-08-20T21:46:16.453Z,4.40
2022-08-20T21:48:51.669Z,4.90
2022-08-20T21:51:18.346Z,4.55
2022-08-20T21:53:45.010Z,4.10
2022-08-20T21:56:11.701Z,4.10
2022-08-20T21:58:39.141Z,3.88
2022-08-20T22:01:06.826Z,3.33
2022-08-20T22:03:37.221Z,3.75
2022-08-20T22:06:07.819Z,3.70
2022-08-20T22:08:35.289Z,4.10
2022-08-20T22:11:02.714Z,3.75
2022-08-20T22:13:32.893Z,4.22
2022-08-20T22:16:04.737Z,4.60
2022-08-20T22:18:31.587Z,4.47
2022-08-20T22:20:58.828Z,4.35
2022-08-20T22:23:26.004Z,4.15
2022-08-20T22:25:52.741Z,3.85
2022-08-20T22:28:19.742Z,4.05
2022-08-20T22:30:46.533Z,4.32
2022-08-20T22:33:16.909Z,3.30
2022-08-20T22:35:48.560Z,3.55
2022-08-20T22:40:43.694Z,3.63
2022-08-20T22:43:12.710Z,3.97
2022-08-20T22:45:41.667Z,3.50
2022-08-20T22:48:09.420Z,3.50
2022-08-20T22:50:39.126Z,4.15
2022-08-20T22:53:07.077Z,3.65
2022-08-20T22:55:34.061Z,3.72
2022-08-20T22:58:00.999Z,3.65
2022-08-20T23:00:27.843Z,3.78
2022-08-20T23:02:57.109Z,3.83
2022-08-20T23:05:26.234Z,3.30
2022-08-20T23:07:55.465Z,3.42
2022-08-20T23:10:23.146Z,3.20
2022-08-20T23:12:49.827Z,3.60
2022-08-20T23:15:16.625Z,3.65
2022-08-20T23:17:43.716Z,3.55
2022-08-20T23:20:12.916Z,3.20
2022-08-20T23:22:39.875Z,3.55
2022-08-20T23:25:08.335Z,3.20
2022-08-20T23:27:40.312Z,3.55
2022-08-20T23:30:07.833Z,3.25
2022-08-20T23:32:34.494Z,3.47
2022-08-20T23:35:01.172Z,4.00
2022-08-20T23:37:27.954Z,3.72
2022-08-20T23:39:54.711Z,3.72
2022-08-20T23:42:21.413Z,3.67
2022-08-20T23:44:48.073Z,3.53
2022-08-20T23:47:19.563Z,3.20
2022-08-20T23:49:46.393Z,3.03
2022-08-20T23:52:13.258Z,3.10
2022-08-20T23:54:41.049Z,3.08
2022-08-20T23:57:08.220Z,3.45
2022-08-20T23:59:35.850Z,3.40
